sensor_id;sensor_type;location;lat;lon;timestamp;pressure;altitude;pressure_sealevel;temperature;humidity
18985;BME280;9626;52.552;13.436;2023-04-08T00:00:28;101473.53;;;5.08;100.00
18985;BME280;9626;52.552;13.436;2023-04-08T00:02:54;101473.53;;;5.08;100.00
18985;BME280;9626;52.552;13.436;2023-04-08T00:05:20;101473.44;;;5.02;100.00
18985;BME280;9626;52.552;13.436;2023-04-08T00:07:46;101475.13;;;5.00;100.00
18985;BME280;9626;52.552;13.436;2023-04-08T00:10:12;101477.75;;;5.00;100.00
18985;BME280;9626;52.552;13.436;2023-04-08T00:12:39;101485.69;;;5.03;100.00
18985;BME280;9626;52.552;13.436;2023-04-08T00:15:05;101477.84;;;5.05;100.00
18985;BME280;9626;52.552;13.436;2023-04-08T00:17:31;101485.63;;;5.00;100.00
18985;BME280;9626;52.552;13.436;2023-04-08T00:19:57;101478.72;;;5.05;100.00
18985;BME280;9626;52.552;13.436;2023-04-08T00:22:25;101476.00;;;4.99;100.00
18985;BME280;9626;52.552;13.436;2023-04-08T00:24:51;101477.81;;;5.02;100.00
18985;BME280;9626;52.552;13.436;2023-04-08T00:27:17;101486.53;;;5.01;100.00
18985;BME280;9626;52.552;13.436;2023-04-08T00:29:43;101474.19;;;4.95;100.00
18985;BME280;9626;52.552;13.436;2023-04-08T00:32:09;101489.13;;;4.99;100.00
18985;BME280;9626;52.552;13.436;2023-04-08T00:34:37;101489.16;;;5.01;100.00
18985;BME280;9626;52.552;13.436;2023-04-08T00:37:03;101488.25;;;5.00;100.00
18985;BME280;9626;52.552;13.436;2023-04-08T00:39:29;101483.00;;;5.00;100.00
18985;BME280;9626;52.552;13.436;2023-04-08T00:41:55;101477.72;;;4.99;100.00
18985;BME280;9626;52.552;13.436;2023-04-08T00:44:22;101482.94;;;4.96;100.00
18985;BME280;9626;52.552;13.436;2023-04-08T00:46:48;101478.63;;;4.99;100.00
18985;BME280;9626;52.552;13.436;2023-04-08T00:49:14;101481.28;;;5.01;100.00
18985;BME280;9626;52.552;13.436;2023-04-08T00:51:42;101477.75;;;5.00;100.00
18985;BME280;9626;52.552;13.436;2023-04-08T00:54:08;101477.72;;;4.97;100.00
18985;BME280;9626;52.552;13.436;2023-04-08T00:56:34;101475.09;;;4.97;100.00
18985;BME280;9626;52.552;13.436;2023-04-08T00:59:01;101470.75;;;4.99;100.00
18985;BME280;9626;52.552;13.436;2023-04-08T01:06:46;101477.72;;;4.97;100.00
18985;BME280;9626;52.552;13.436;2023-04-08T01:09:17;101483.88;;;4.99;100.00
18985;BME280;9626;52.552;13.436;2023-04-08T01:11:45;101480.34;;;4.97;100.00
18985;BME280;9626;52.552;13.436;2023-04-08T01:14:16;101482.13;;;4.98;100.00
18985;BME280;9626;52.552;13.436;2023-04-08T01:16:45;101489.13;;;4.99;100.00
18985;BME280;9626;52.552;13.436;2023-04-08T01:19:20;101484.75;;;4.98;100.00
18985;BME280;9626;52.552;13.436;2023-04-08T01:21:47;101490.00;;;5.00;100.00
18985;BME280;9626;52.552;13.436;2023-04-08T01:24:27;101493.47;;;4.97;100.00
18985;BME280;9626;52.552;13.436;2023-04-08T01:26:55;101495.22;;;4.97;100.00
18985;BME280;9626;52.552;13.436;2023-04-08T01:29:23;101493.47;;;4.99;100.00
18985;BME280;9626;52.552;13.436;2023-04-08T01:31:51;101497.06;;;5.04;100.00
18985;BME280;9626;52.552;13.436;2023-04-08T01:34:18;101495.31;;;5.04;100.00
18985;BME280;9626;52.552;13.436;2023-04-08T01:36:46;101496.13;;;5.00;100.00
18985;BME280;9626;52.552;13.436;2023-04-08T01:39:14;101492.63;;;5.00;100.00
18985;BME280;9626;52.552;13.436;2023-04-08T01:41:42;101499.63;;;4.99;100.00
18985;BME280;9626;52.552;13.436;2023-04-08T01:44:10;101494.31;;;4.96;100.00
18985;BME280;9626;52.552;13.436;2023-04-08T01:46:37;101500.34;;;4.90;100.00
18985;BME280;9626;52.552;13.436;2023-04-08T01:49:05;101506.50;;;4.91;100.00
18985;BME280;9626;52.552;13.436;2023-04-08T01:51:32;101509.97;;;4.90;100.00
18985;BME280;9626;52.552;13.436;2023-04-08T01:53:58;101499.56;;;4.96;100.00
18985;BME280;9626;52.552;13.436;2023-04-08T01:56:26;101503.16;;;5.01;100.00
18985;BME280;9626;52.552;13.436;2023-04-08T01:58:54;101497.03;;;5.01;100.00
18985;BME280;9626;52.552;13.436;2023-04-08T02:01:26;101496.19;;;5.03;100.00
18985;BME280;9626;52.552;13.436;2023-04-08T02:03:52;101494.50;;;5.07;100.00
18985;BME280;9626;52.552;13.436;2023-04-08T02:06:23;101496.28;;;5.10;100.00
18985;BME280;9626;52.552;13.436;2023-04-08T02:08:50;101498.00;;;5.07;100.00
18985;BME280;9626;52.552;13.436;2023-04-08T02:11:16;101503.19;;;5.04;100.00
18985;BME280;9626;52.552;13.436;2023-04-08T02:13:42;101507.56;;;5.04;100.00
18985;BME280;9626;52.552;13.436;2023-04-08T02:16:15;101508.38;;;4.98;100.00
18985;BME280;9626;52.552;13.436;2023-04-08T02:18:53;101514.59;;;5.05;100.00
18985;BME280;9626;52.552;13.436;2023-04-08T02:21:21;101519.88;;;5.06;100.00
18985;BME280;9626;52.552;13.436;2023-04-08T02:23:52;101518.94;;;5.04;100.00
18985;BME280;9626;52.552;13.436;2023-04-08T02:26:19;101518.06;;;5.04;100.00
18985;BME280;9626;52.552;13.436;2023-04-08T02:28:48;101527.75;;;5.06;100.00
18985;BME280;9626;52.552;13.436;2023-04-08T02:31:16;101524.28;;;5.07;100.00
18985;BME280;9626;52.552;13.436;2023-04-08T02:33:42;101525.97;;;5.05;100.00
18985;BME280;9626;52.552;13.436;2023-04-08T02:36:10;101525.16;;;5.10;100.00
18985;BME280;9626;52.552;13.436;2023-04-08T02:38:37;101522.44;;;5.03;100.00
18985;BME280;9626;52.552;13.436;2023-04-08T02:41:03;101525.97;;;5.05;100.00
18985;BME280;9626;52.552;13.436;2023-04-08T02:43:29;101525.97;;;5.05;100.00
18985;BME280;9626;52.552;13.436;2023-04-08T02:45:58;101527.69;;;5.03;100.00
18985;BME280;9626;52.552;13.436;2023-04-08T02:48:29;101532.94;;;5.03;100.00
18985;BME280;9626;52.552;13.436;2023-04-08T02:50:55;101528.56;;;5.04;100.00
18985;BME280;9626;52.552;13.436;2023-04-08T02:53:22;101527.75;;;5.06;100.00
18985;BME280;9626;52.552;13.436;2023-04-08T02:55:49;101539.09;;;5.05;100.00
18985;BME280;9626;52.552;13.436;2023-04-08T02:58:16;101540.03;;;5.09;100.00
18985;BME280;9626;52.552;13.436;2023-04-08T03:00:42;101541.78;;;5.08;100.00
18985;BME280;9626;52.552;13.436;2023-04-08T03:03:08;101537.31;;;5.04;100.00
18985;BME280;9626;52.552;13.436;2023-04-08T03:05:34;101534.66;;;5.01;100.00
18985;BME280;9626;52.552;13.436;2023-04-08T03:08:00;101537.25;;;4.98;100.00
18985;BME280;9626;52.552;13.436;2023-04-08T03:10:26;101541.50;;;4.93;100.00
18985;BME280;9626;52.552;13.436;2023-04-08T03:12:52;101545.19;;;5.03;100.00
18985;BME280;9626;52.552;13.436;2023-04-08T03:15:18;101549.56;;;5.02;100.00
18985;BME280;9626;52.552;13.436;2023-04-08T03:17:45;101556.56;;;5.02;100.00
18985;BME280;9626;52.552;13.436;2023-04-08T03:20:11;101551.34;;;5.05;100.00
18985;BME280;9626;52.552;13.436;2023-04-08T03:22:37;101559.22;;;5.03;100.00
18985;BME280;9626;52.552;13.436;2023-04-08T03:25:03;101555.75;;;5.06;100.00
18985;BME280;9626;52.552;13.436;2023-04-08T03:27:29;101553.13;;;5.06;100.00
18985;BME280;9626;52.552;13.436;2023-04-08T03:29:56;101555.66;;;5.01;100.00
18985;BME280;9626;52.552;13.436;2023-04-08T03:32:22;101564.28;;;4.94;100.00
18985;BME280;9626;52.552;13.436;2023-04-08T03:34:48;101561.63;;;4.91;100.00
18985;BME280;9626;52.552;13.436;2023-04-08T03:37:16;101562.50;;;4.91;100.00
18985;BME280;9626;52.552;13.436;2023-04-08T03:39:42;101567.69;;;4.88;100.00
18985;BME280;9626;52.552;13.436;2023-04-08T03:42:08;101561.66;;;4.93;100.00
18985;BME280;9626;52.552;13.436;2023-04-08T03:44:34;101568.69;;;4.95;100.00
18985;BME280;9626;52.552;13.436;2023-04-08T03:47:02;101567.88;;;4.99;100.00
18985;BME280;9626;52.552;13.436;2023-04-08T03:49:28;101564.28;;;4.94;100.00
18985;BME280;9626;52.552;13.436;2023-04-08T03:51:54;101569.53;;;4.94;100.00
18985;BME280;9626;52.552;13.436;2023-04-08T03:54:20;101572.13;;;4.93;100.00
18985;BME280;9626;52.552;13.436;2023-04-08T03:56:48;101571.34;;;4.97;100.00
18985;BME280;9626;52.552;13.436;2023-04-08T03:59:14;101584.53;;;5.01;100.00
18985;BME280;9626;52.552;13.436;2023-04-08T04:01:40;101582.72;;;4.97;100.00
18985;BME280;9626;52.552;13.436;2023-04-08T04:04:06;101579.22;;;4.98;100.00
18985;BME280;9626;52.552;13.436;2023-04-08T04:06:32;101594.97;;;4.98;100.00
18985;BME280;9626;52.552;13.436;2023-04-08T04:08:58;101587.09;;;4.97;100.00
18985;BME280;9626;52.552;13.436;2023-04-08T04:11:24;101583.63;;;4.98;100.00
18985;BME280;9626;52.552;13.436;2023-04-08T04:13:51;101586.28;;;5.01;100.00
18985;BME280;9626;52.552;13.436;2023-04-08T04:16:17;101589.75;;;5.00;100.00
18985;BME280;9626;52.552;13.436;2023-04-08T04:18:43;101595.06;;;5.03;100.00
18985;BME280;9626;52.552;13.436;2023-04-08T04:21:09;101601.22;;;5.03;100.00
18985;BME280;9626;52.552;13.436;2023-04-08T04:23:35;101597.66;;;5.01;100.00
18985;BME280;9626;52.552;13.436;2023-04-08T04:26:01;101606.34;;;4.97;100.00
18985;BME280;9626;52.552;13.436;2023-04-08T04:28:27;101607.19;;;4.96;100.00
18985;BME280;9626;52.552;13.436;2023-04-08T04:30:53;101602.81;;;4.95;100.00
18985;BME280;9626;52.552;13.436;2023-04-08T04:33:37;101601.03;;;4.94;100.00
18985;BME280;9626;52.552;13.436;2023-04-08T04:36:32;101606.34;;;4.97;100.00
18985;BME280;9626;52.552;13.436;2023-04-08T04:38:58;101611.59;;;4.97;100.00
18985;BME280;9626;52.552;13.436;2023-04-08T04:41:24;101611.53;;;4.94;100.00
18985;BME280;9626;52.552;13.436;2023-04-08T04:43:50;101618.56;;;4.95;100.00
18985;BME280;9626;52.552;13.436;2023-04-08T04:46:16;101615.03;;;4.95;100.00
18985;BME280;9626;52.552;13.436;2023-04-08T04:48:42;101622.91;;;4.95;100.00
18985;BME280;9626;52.552;13.436;2023-04-08T04:51:08;101625.56;;;4.96;100.00
18985;BME280;9626;52.552;13.436;2023-04-08T04:53:34;101630.88;;;4.99;100.00
18985;BME280;9626;52.552;13.436;2023-04-08T04:56:00;101634.38;;;5.00;100.00
18985;BME280;9626;52.552;13.436;2023-04-08T04:58:26;101629.09;;;4.98;100.00
18985;BME280;9626;52.552;13.436;2023-04-08T05:00:52;101644.00;;;4.99;100.00
18985;BME280;9626;52.552;13.436;2023-04-08T05:03:18;101640.47;;;4.99;100.00
18985;BME280;9626;52.552;13.436;2023-04-08T05:05:49;101638.78;;;5.01;100.00
18985;BME280;9626;52.552;13.436;2023-04-08T05:08:15;101640.47;;;4.97;100.00
18985;BME280;9626;52.552;13.436;2023-04-08T05:10:41;101647.47;;;4.97;100.00
18985;BME280;9626;52.552;13.436;2023-04-08T05:13:07;101644.84;;;4.98;100.00
18985;BME280;9626;52.552;13.436;2023-04-08T05:15:34;101649.28;;;5.01;100.00
18985;BME280;9626;52.552;13.436;2023-04-08T05:18:00;101651.09;;;5.03;100.00
18985;BME280;9626;52.552;13.436;2023-04-08T05:20:26;101651.94;;;5.02;100.00
18985;BME280;9626;52.552;13.436;2023-04-08T05:22:52;101656.31;;;5.02;100.00
18985;BME280;9626;52.552;13.436;2023-04-08T05:25:18;101658.09;;;5.04;100.00
18985;BME280;9626;52.552;13.436;2023-04-08T05:27:44;101652.06;;;5.08;100.00
18985;BME280;9626;52.552;13.436;2023-04-08T05:30:11;101650.38;;;5.14;100.00
18985;BME280;9626;52.552;13.436;2023-04-08T05:32:38;101655.75;;;5.20;100.00
18985;BME280;9626;52.552;13.436;2023-04-08T05:35:05;101657.59;;;5.24;100.00
18985;BME280;9626;52.552;13.436;2023-04-08T05:37:31;101661.94;;;5.23;100.00
18985;BME280;9626;52.552;13.436;2023-04-08T05:39:57;101664.53;;;5.22;100.00
18985;BME280;9626;52.552;13.436;2023-04-08T05:42:23;101673.31;;;5.22;100.00
18985;BME280;9626;52.552;13.436;2023-04-08T05:44:49;101676.81;;;5.23;100.00
18985;BME280;9626;52.552;13.436;2023-04-08T05:47:15;101680.28;;;5.22;100.00
18985;BME280;9626;52.552;13.436;2023-04-08T05:49:41;101691.69;;;5.22;100.00
18985;BME280;9626;52.552;13.436;2023-04-08T05:52:07;101690.81;;;5.23;100.00
18985;BME280;9626;52.552;13.436;2023-04-08T05:54:33;101689.09;;;5.24;100.00
18985;BME280;9626;52.552;13.436;2023-04-08T05:56:59;101703.22;;;5.31;100.00
18985;BME280;9626;52.552;13.436;2023-04-08T05:59:25;101686.63;;;5.33;100.00
18985;BME280;9626;52.552;13.436;2023-04-08T06:01:51;101703.25;;;5.32;100.00
18985;BME280;9626;52.552;13.436;2023-04-08T06:04:17;101695.44;;;5.37;100.00
18985;BME280;9626;52.552;13.436;2023-04-08T06:06:43;101695.41;;;5.35;100.00
18985;BME280;9626;52.552;13.436;2023-04-08T06:09:09;101691.13;;;5.39;100.00
18985;BME280;9626;52.552;13.436;2023-04-08T06:11:36;101701.66;;;5.42;100.00
18985;BME280;9626;52.552;13.436;2023-04-08T06:14:02;101700.81;;;5.43;100.00
18985;BME280;9626;52.552;13.436;2023-04-08T06:16:28;101706.94;;;5.44;100.00
18985;BME280;9626;52.552;13.436;2023-04-08T06:18:54;101700.00;;;5.46;100.00
18985;BME280;9626;52.552;13.436;2023-04-08T06:21:20;101705.25;;;5.46;100.00
18985;BME280;9626;52.552;13.436;2023-04-08T06:23:46;101705.28;;;5.49;100.00
18985;BME280;9626;52.552;13.436;2023-04-08T06:26:12;101699.16;;;5.48;100.00
18985;BME280;9626;52.552;13.436;2023-04-08T06:28:38;101705.34;;;5.52;100.00
18985;BME280;9626;52.552;13.436;2023-04-08T06:31:04;101715.97;;;5.58;100.00
18985;BME280;9626;52.552;13.436;2023-04-08T06:33:32;101718.63;;;5.59;100.00
18985;BME280;9626;52.552;13.436;2023-04-08T06:36:05;101718.63;;;5.61;100.00
18985;BME280;9626;52.552;13.436;2023-04-08T06:38:32;101723.97;;;5.66;100.00
18985;BME280;9626;52.552;13.436;2023-04-08T06:41:05;101724.88;;;5.68;100.00
18985;BME280;9626;52.552;13.436;2023-04-08T06:43:34;101729.28;;;5.69;100.00
18985;BME280;9626;52.552;13.436;2023-04-08T06:46:01;101735.56;;;5.77;100.00
18985;BME280;9626;52.552;13.436;2023-04-08T06:48:27;101739.09;;;5.81;100.00
18985;BME280;9626;52.552;13.436;2023-04-08T06:50:56;101740.06;;;5.84;100.00
18985;BME280;9626;52.552;13.436;2023-04-08T06:53:23;101741.78;;;5.82;100.00
18985;BME280;9626;52.552;13.436;2023-04-08T06:55:49;101743.63;;;5.88;100.00
18985;BME280;9626;52.552;13.436;2023-04-08T06:58:15;101754.13;;;5.86;100.00
18985;BME280;9626;52.552;13.436;2023-04-08T07:00:41;101755.03;;;5.90;100.00
18985;BME280;9626;52.552;13.436;2023-04-08T07:03:07;101757.75;;;5.95;100.00
18985;BME280;9626;52.552;13.436;2023-04-08T07:05:37;101757.75;;;5.95;100.00
18985;BME280;9626;52.552;13.436;2023-04-08T07:08:04;101757.09;;;6.06;100.00
18985;BME280;9626;52.552;13.436;2023-04-08T07:10:30;101757.19;;;6.11;100.00
18985;BME280;9626;52.552;13.436;2023-04-08T07:12:56;101758.06;;;6.13;100.00
18985;BME280;9626;52.552;13.436;2023-04-08T07:15:22;101759.03;;;6.18;100.00
18985;BME280;9626;52.552;13.436;2023-04-08T07:17:48;101761.78;;;6.26;100.00
18985;BME280;9626;52.552;13.436;2023-04-08T07:20:15;101766.22;;;6.30;100.00
18985;BME280;9626;52.552;13.436;2023-04-08T07:22:41;101766.28;;;6.33;100.00
18985;BME280;9626;52.552;13.436;2023-04-08T07:25:07;101766.38;;;6.39;100.00
18985;BME280;9626;52.552;13.436;2023-04-08T07:27:34;101765.50;;;6.42;100.00
18985;BME280;9626;52.552;13.436;2023-04-08T07:30:01;101774.38;;;6.47;100.00
18985;BME280;9626;52.552;13.436;2023-04-08T07:32:27;101773.56;;;6.53;100.00
18985;BME280;9626;52.552;13.436;2023-04-08T07:34:53;101782.34;;;6.52;100.00
18985;BME280;9626;52.552;13.436;2023-04-08T07:37:19;101777.13;;;6.55;100.00
18985;BME280;9626;52.552;13.436;2023-04-08T07:39:45;101786.00;;;6.63;100.00
18985;BME280;9626;52.552;13.436;2023-04-08T07:42:11;101783.41;;;6.66;100.00
18985;BME280;9626;52.552;13.436;2023-04-08T07:44:37;101790.34;;;6.61;100.00
18985;BME280;9626;52.552;13.436;2023-04-08T07:47:03;101783.34;;;6.60;100.00
18985;BME280;9626;52.552;13.436;2023-04-08T07:49:29;101794.75;;;6.62;100.00
18985;BME280;9626;52.552;13.436;2023-04-08T07:51:55;101793.03;;;6.64;100.00
18985;BME280;9626;52.552;13.436;2023-04-08T07:54:22;101797.50;;;6.68;100.00
18985;BME280;9626;52.552;13.436;2023-04-08T07:56:48;101801.16;;;6.80;100.00
18985;BME280;9626;52.552;13.436;2023-04-08T07:59:14;101795.88;;;6.80;100.00
18985;BME280;9626;52.552;13.436;2023-04-08T08:01:40;101796.72;;;6.79;100.00
18985;BME280;9626;52.552;13.436;2023-04-08T08:04:06;101802.06;;;6.82;100.00
18985;BME280;9626;52.552;13.436;2023-04-08T08:06:32;101798.50;;;6.80;100.00
18985;BME280;9626;52.552;13.436;2023-04-08T08:09:00;101803.91;;;6.89;100.00
18985;BME280;9626;52.552;13.436;2023-04-08T08:11:26;101806.69;;;7.01;100.00
18985;BME280;9626;52.552;13.436;2023-04-08T08:13:53;101805.03;;;7.09;100.00
18985;BME280;9626;52.552;13.436;2023-04-08T08:16:19;101799.88;;;7.17;100.00
18985;BME280;9626;52.552;13.436;2023-04-08T08:18:45;101792.81;;;7.13;100.00
18985;BME280;9626;52.552;13.436;2023-04-08T08:21:11;101804.22;;;7.15;100.00
18985;BME280;9626;52.552;13.436;2023-04-08T08:23:37;101806.88;;;7.17;100.00
18985;BME280;9626;52.552;13.436;2023-04-08T08:26:09;101808.00;;;7.37;100.00
18985;BME280;9626;52.552;13.436;2023-04-08T08:28:35;101811.56;;;7.41;100.00
18985;BME280;9626;52.552;13.436;2023-04-08T08:31:01;101812.44;;;7.41;100.00
18985;BME280;9626;52.552;13.436;2023-04-08T08:33:28;101822.94;;;7.37;100.00
18985;BME280;9626;52.552;13.436;2023-04-08T08:35:54;101820.31;;;7.37;100.00
18985;BME280;9626;52.552;13.436;2023-04-08T08:38:22;101820.34;;;7.41;100.00
18985;BME280;9626;52.552;13.436;2023-04-08T08:40:56;101818.59;;;7.40;100.00
18985;BME280;9626;52.552;13.436;2023-04-08T08:43:23;101822.19;;;7.49;100.00
18985;BME280;9626;52.552;13.436;2023-04-08T08:45:50;101821.41;;;7.57;100.00
18985;BME280;9626;52.552;13.436;2023-04-08T08:48:17;101822.25;;;7.55;100.00
18985;BME280;9626;52.552;13.436;2023-04-08T08:50:43;101826.72;;;7.62;100.00
18985;BME280;9626;52.552;13.436;2023-04-08T08:53:10;101826.94;;;7.85;100.00
18985;BME280;9626;52.552;13.436;2023-04-08T08:55:37;101828.81;;;7.94;100.00
18985;BME280;9626;52.552;13.436;2023-04-08T08:58:06;101828.72;;;7.86;100.00
18985;BME280;9626;52.552;13.436;2023-04-08T09:00:41;101826.94;;;7.85;100.00
18985;BME280;9626;52.552;13.436;2023-04-08T09:03:23;101841.16;;;7.97;100.00
18985;BME280;9626;52.552;13.436;2023-04-08T09:08:49;101837.22;;;8.53;100.00
18985;BME280;9626;52.552;13.436;2023-04-08T09:11:19;101840.81;;;8.62;100.00
18985;BME280;9626;52.552;13.436;2023-04-08T09:13:48;101838.25;;;8.76;100.00
18985;BME280;9626;52.552;13.436;2023-04-08T09:16:18;101841.81;;;8.82;100.00
18985;BME280;9626;52.552;13.436;2023-04-08T09:18:45;101845.38;;;8.91;100.00
18985;BME280;9626;52.552;13.436;2023-04-08T09:21:15;101853.31;;;8.90;100.00
18985;BME280;9626;52.552;13.436;2023-04-08T09:23:45;101863.84;;;8.84;100.00
18985;BME280;9626;52.552;13.436;2023-04-08T09:28:40;101862.09;;;8.89;100.00
18985;BME280;9626;52.552;13.436;2023-04-08T09:31:27;101861.16;;;8.76;100.00
18985;BME280;9626;52.552;13.436;2023-04-08T09:33:57;101861.75;;;8.42;100.00
18985;BME280;9626;52.552;13.436;2023-04-08T09:36:24;101864.34;;;8.36;100.00
18985;BME280;9626;52.552;13.436;2023-04-08T09:38:52;101876.63;;;8.33;100.00
18985;BME280;9626;52.552;13.436;2023-04-08T09:41:20;101869.56;;;8.32;100.00
18985;BME280;9626;52.552;13.436;2023-04-08T09:43:49;101871.41;;;8.39;100.00
18985;BME280;9626;52.552;13.436;2023-04-08T09:46:19;101867.03;;;8.42;100.00
18985;BME280;9626;52.552;13.436;2023-04-08T09:54:13;101867.78;;;8.27;100.00
18985;BME280;9626;52.552;13.436;2023-04-08T09:57:00;101881.97;;;8.37;100.00
18985;BME280;9626;52.552;13.436;2023-04-08T09:59:33;101874.13;;;8.45;100.00
18985;BME280;9626;52.552;13.436;2023-04-08T10:02:06;101871.41;;;8.37;100.00
18985;BME280;9626;52.552;13.436;2023-04-08T10:04:38;101876.81;;;8.51;100.00
18985;BME280;9626;52.552;13.436;2023-04-08T10:07:07;101871.22;;;9.51;100.00
18985;BME280;9626;52.552;13.436;2023-04-08T10:09:33;101869.59;;;10.27;100.00
18985;BME280;9626;52.552;13.436;2023-04-08T10:12:00;101869.56;;;9.95;100.00
18985;BME280;9626;52.552;13.436;2023-04-08T10:14:28;101870.44;;;9.83;100.00
18985;BME280;9626;52.552;13.436;2023-04-08T10:17:25;101873.03;;;9.69;100.00
18985;BME280;9626;52.552;13.436;2023-04-08T10:19:52;101872.19;;;9.76;100.00
18985;BME280;9626;52.552;13.436;2023-04-08T10:27:43;101869.44;;;11.37;100.00
18985;BME280;9626;52.552;13.436;2023-04-08T10:32:51;101868.59;;;11.26;100.00
18985;BME280;9626;52.552;13.436;2023-04-08T10:35:27;101867.75;;;11.14;100.00
18985;BME280;9626;52.552;13.436;2023-04-08T10:37:53;101864.22;;;11.09;100.00
18985;BME280;9626;52.552;13.436;2023-04-08T10:40:20;101864.31;;;10.72;100.00
18985;BME280;9626;52.552;13.436;2023-04-08T10:42:46;101873.00;;;11.21;100.00
18985;BME280;9626;52.552;13.436;2023-04-08T10:45:16;101863.34;;;11.04;100.00
18985;BME280;9626;52.552;13.436;2023-04-08T10:47:43;101867.81;;;10.93;100.00
18985;BME280;9626;52.552;13.436;2023-04-08T10:50:16;101863.44;;;10.56;100.00
18985;BME280;9626;52.552;13.436;2023-04-08T10:52:50;101866.97;;;10.51;100.00
18985;BME280;9626;52.552;13.436;2023-04-08T10:55:24;101865.22;;;10.51;100.00
18985;BME280;9626;52.552;13.436;2023-04-08T10:57:50;101866.09;;;10.62;100.00
18985;BME280;9626;52.552;13.436;2023-04-08T11:00:17;101871.38;;;10.82;100.00
18985;BME280;9626;52.552;13.436;2023-04-08T11:02:44;101861.56;;;11.17;100.00
18985;BME280;9626;52.552;13.436;2023-04-08T11:05:10;101865.94;;;11.23;100.00
18985;BME280;9626;52.552;13.436;2023-04-08T11:07:42;101863.03;;;11.74;100.00
18985;BME280;9626;52.552;13.436;2023-04-08T11:10:09;101877.22;;;11.70;100.00
18985;BME280;9626;52.552;13.436;2023-04-08T11:12:36;101869.41;;;11.40;100.00
18985;BME280;9626;52.552;13.436;2023-04-08T11:15:03;101874.81;;;11.15;100.00
18985;BME280;9626;52.552;13.436;2023-04-08T11:17:30;101873.00;;;11.33;100.00
18985;BME280;9626;52.552;13.436;2023-04-08T11:19:59;101873.00;;;11.35;100.00
18985;BME280;9626;52.552;13.436;2023-04-08T11:22:27;101871.97;;;11.57;100.00
18985;BME280;9626;52.552;13.436;2023-04-08T11:24:55;101870.22;;;11.61;100.00
18985;BME280;9626;52.552;13.436;2023-04-08T11:27:22;101877.28;;;11.60;100.00
18985;BME280;9626;52.552;13.436;2023-04-08T11:29:52;101871.13;;;11.50;100.00
18985;BME280;9626;52.552;13.436;2023-04-08T11:32:20;101876.41;;;11.57;100.00
18985;BME280;9626;52.552;13.436;2023-04-08T11:34:46;101875.63;;;11.36;100.00
18985;BME280;9626;52.552;13.436;2023-04-08T11:37:12;101880.97;;;11.25;100.00
18985;BME280;9626;52.552;13.436;2023-04-08T11:39:42;101877.47;;;11.11;100.00
18985;BME280;9626;52.552;13.436;2023-04-08T11:42:08;101885.44;;;11.09;100.00
18985;BME280;9626;52.552;13.436;2023-04-08T11:44:35;101886.38;;;10.88;100.00
18985;BME280;9626;52.552;13.436;2023-04-08T11:47:01;101874.88;;;10.85;100.00
18985;BME280;9626;52.552;13.436;2023-04-08T11:49:42;101880.22;;;10.80;100.00
18985;BME280;9626;52.552;13.436;2023-04-08T11:52:08;101880.19;;;10.66;100.00
18985;BME280;9626;52.552;13.436;2023-04-08T11:54:40;101874.94;;;10.60;100.00
18985;BME280;9626;52.552;13.436;2023-04-08T11:57:07;101876.69;;;10.61;100.00
18985;BME280;9626;52.552;13.436;2023-04-08T11:59:35;101878.44;;;10.59;100.00
18985;BME280;9626;52.552;13.436;2023-04-08T12:02:02;101874.94;;;10.47;100.00
18985;BME280;9626;52.552;13.436;2023-04-08T12:04:28;101863.47;;;10.59;100.00
18985;BME280;9626;52.552;13.436;2023-04-08T12:06:55;101878.44;;;10.77;100.00
18985;BME280;9626;52.552;13.436;2023-04-08T12:09:21;101870.34;;;11.21;100.00
18985;BME280;9626;52.552;13.436;2023-04-08T12:11:47;101874.59;;;11.65;100.00
18985;BME280;9626;52.552;13.436;2023-04-08T12:14:13;101864.69;;;12.04;95.67
18985;BME280;9626;52.552;13.436;2023-04-08T12:16:39;101873.59;;;11.83;95.80
18985;BME280;9626;52.552;13.436;2023-04-08T12:19:06;101871.91;;;11.73;94.39
18985;BME280;9626;52.552;13.436;2023-04-08T12:21:32;101872.81;;;11.69;94.51
18985;BME280;9626;52.552;13.436;2023-04-08T12:23:59;101872.81;;;11.72;97.41
18985;BME280;9626;52.552;13.436;2023-04-08T12:26:25;101869.38;;;11.45;99.92
18985;BME280;9626;52.552;13.436;2023-04-08T12:28:51;101865.88;;;11.41;96.76
18985;BME280;9626;52.552;13.436;2023-04-08T12:31:19;101869.44;;;11.31;97.52
18985;BME280;9626;52.552;13.436;2023-04-08T12:33:45;101877.28;;;11.60;91.11
18985;BME280;9626;52.552;13.436;2023-04-08T12:36:12;101866.38;;;13.09;75.77
18985;BME280;9626;52.552;13.436;2023-04-08T12:38:38;101868.38;;;13.62;68.75
18985;BME280;9626;52.552;13.436;2023-04-08T12:41:04;101876.13;;;13.07;73.05
18985;BME280;9626;52.552;13.436;2023-04-08T12:43:30;101873.72;;;12.82;75.28
18985;BME280;9626;52.552;13.436;2023-04-08T12:45:57;101861.66;;;12.50;83.47
18985;BME280;9626;52.552;13.436;2023-04-08T12:48:23;101868.06;;;12.23;90.39
18985;BME280;9626;52.552;13.436;2023-04-08T12:50:49;101875.22;;;12.10;95.10
18985;BME280;9626;52.552;13.436;2023-04-08T12:53:15;101864.69;;;11.98;98.10
18985;BME280;9626;52.552;13.436;2023-04-08T12:55:41;101866.47;;;11.91;97.26
18985;BME280;9626;52.552;13.436;2023-04-08T12:58:07;101856.84;;;11.76;98.67
18985;BME280;9626;52.552;13.436;2023-04-08T13:00:33;101861.97;;;12.13;95.29
18985;BME280;9626;52.552;13.436;2023-04-08T13:03:03;101863.69;;;12.14;93.03
18985;BME280;9626;52.552;13.436;2023-04-08T13:05:29;101854.59;;;12.43;92.41
18985;BME280;9626;52.552;13.436;2023-04-08T13:07:56;101865.16;;;12.52;88.46
18985;BME280;9626;52.552;13.436;2023-04-08T13:10:22;101863.25;;;12.68;85.12
18985;BME280;9626;52.552;13.436;2023-04-08T13:12:48;101855.09;;;13.62;76.68